sensor_id;sensor_type;location;lat;lon;timestamp;temperature;humidity
3492;DHT22;1760;52.480;13.422;2022-08-21T00:00:15;21.10;99.90
3492;DHT22;1760;52.480;13.422;2022-08-21T00:02:45;21.10;99.90
3492;DHT22;1760;52.480;13.422;2022-08-21T00:05:13;21.10;99.90
3492;DHT22;1760;52.480;13.422;2022-08-21T00:07:40;21.10;99.90
3492;DHT22;1760;52.480;13.422;2022-08-21T00:10:08;21.10;99.90
3492;DHT22;1760;52.480;13.422;2022-08-21T00:12:36;21.20;99.90
3492;DHT22;1760;52.480;13.422;2022-08-21T00:15:10;21.20;99.90
3492;DHT22;1760;52.480;13.422;2022-08-21T00:17:38;21.10;99.90
3492;DHT22;1760;52.480;13.422;2022-08-21T00:20:06;21.10;99.90
3492;DHT22;1760;52.480;13.422;2022-08-21T00:22:35;21.10;99.90
3492;DHT22;1760;52.480;13.422;2022-08-21T00:25:02;21.10;99.90
3492;DHT22;1760;52.480;13.422;2022-08-21T00:27:31;21.10;99.90
3492;DHT22;1760;52.480;13.422;2022-08-21T00:29:58;21.10;99.90
3492;DHT22;1760;52.480;13.422;2022-08-21T00:32:26;21.10;99.90
3492;DHT22;1760;52.480;13.422;2022-08-21T00:34:57;21.00;99.90
3492;DHT22;1760;52.480;13.422;2022-08-21T00:37:24;21.00;99.90
3492;DHT22;1760;52.480;13.422;2022-08-21T00:39:51;21.00;99.90
3492;DHT22;1760;52.480;13.422;2022-08-21T00:42:18;21.00;99.90
3492;DHT22;1760;52.480;13.422;2022-08-21T00:44:49;21.00;99.90
3492;DHT22;1760;52.480;13.422;2022-08-21T00:47:17;20.90;99.90
3492;DHT22;1760;52.480;13.422;2022-08-21T00:49:44;21.00;99.90
3492;DHT22;1760;52.480;13.422;2022-08-21T00:52:17;20.90;99.90
3492;DHT22;1760;52.480;13.422;2022-08-21T00:54:46;20.90;99.90
3492;DHT22;1760;52.480;13.422;2022-08-21T00:57:15;20.90;99.90
3492;DHT22;1760;52.480;13.422;2022-08-21T00:59:47;20.90;99.90
3492;DHT22;1760;52.480;13.422;2022-08-21T01:02:17;20.90;99.90
3492;DHT22;1760;52.480;13.422;2022-08-21T01:04:44;20.80;99.90
3492;DHT22;1760;52.480;13.422;2022-08-21T01:07:13;20.80;99.90
3492;DHT22;1760;52.480;13.422;2022-08-21T01:09:40;20.80;99.90
3492;DHT22;1760;52.480;13.422;2022-08-21T01:12:08;20.70;99.90
3492;DHT22;1760;52.480;13.422;2022-08-21T01:14:35;20.70;99.90
3492;DHT22;1760;52.480;13.422;2022-08-21T01:17:05;20.70;99.90
3492;DHT22;1760;52.480;13.422;2022-08-21T01:19:32;20.70;99.90
3492;DHT22;1760;52.480;13.422;2022-08-21T01:22:01;20.70;99.90
3492;DHT22;1760;52.480;13.422;2022-08-21T01:24:32;20.70;99.90
3492;DHT22;1760;52.480;13.422;2022-08-21T01:26:59;20.60;99.90
3492;DHT22;1760;52.480;13.422;2022-08-21T01:29:36;20.60;99.90
3492;DHT22;1760;52.480;13.422;2022-08-21T01:32:06;20.60;99.90
3492;DHT22;1760;52.480;13.422;2022-08-21T01:34:37;20.60;99.90
3492;DHT22;1760;52.480;13.422;2022-08-21T01:37:12;20.60;99.90
3492;DHT22;1760;52.480;13.422;2022-08-21T01:39:40;20.50;99.90
3492;DHT22;1760;52.480;13.422;2022-08-21T01:42:10;20.50;99.90
3492;DHT22;1760;52.480;13.422;2022-08-21T01:44:37;20.50;99.90
3492;DHT22;1760;52.480;13.422;2022-08-21T01:47:07;20.50;99.90
3492;DHT22;1760;52.480;13.422;2022-08-21T01:49:36;20.50;99.90
3492;DHT22;1760;52.480;13.422;2022-08-21T01:52:06;20.50;99.90
3492;DHT22;1760;52.480;13.422;2022-08-21T01:54:34;20.50;99.90
3492;DHT22;1760;52.480;13.422;2022-08-21T01:57:01;20.40;99.90
3492;DHT22;1760;52.480;13.422;2022-08-21T01:59:28;20.40;99.90
3492;DHT22;1760;52.480;13.422;2022-08-21T02:01:55;20.30;99.90
3492;DHT22;1760;52.480;13.422;2022-08-21T02:04:23;20.30;99.90
3492;DHT22;1760;52.480;13.422;2022-08-21T02:06:50;20.30;99.90
3492;DHT22;1760;52.480;13.422;2022-08-21T02:09:19;20.30;99.90
3492;DHT22;1760;52.480;13.422;2022-08-21T02:11:51;20.20;99.90
3492;DHT22;1760;52.480;13.422;2022-08-21T02:14:18;20.20;99.90
3492;DHT22;1760;52.480;13.422;2022-08-21T02:16:48;20.20;99.90
3492;DHT22;1760;52.480;13.422;2022-08-21T02:19:16;20.10;99.90
3492;DHT22;1760;52.480;13.422;2022-08-21T02:21:44;20.10;99.90
3492;DHT22;1760;52.480;13.422;2022-08-21T02:24:14;20.10;99.90
3492;DHT22;1760;52.480;13.422;2022-08-21T02:26:42;20.10;99.90
3492;DHT22;1760;52.480;13.422;2022-08-21T02:29:10;20.10;99.90
3492;DHT22;1760;52.480;13.422;2022-08-21T02:31:37;20.10;99.90
3492;DHT22;1760;52.480;13.422;2022-08-21T02:34:04;20.10;99.90
3492;DHT22;1760;52.480;13.422;2022-08-21T02:36:31;20.10;99.90
3492;DHT22;1760;52.480;13.422;2022-08-21T02:38:58;20.10;99.90
3492;DHT22;1760;52.480;13.422;2022-08-21T02:41:25;20.00;99.90
3492;DHT22;1760;52.480;13.422;2022-08-21T02:43:52;20.00;99.90
3492;DHT22;1760;52.480;13.422;2022-08-21T02:46:20;20.00;99.90
3492;DHT22;1760;52.480;13.422;2022-08-21T02:48:47;19.90;99.90
3492;DHT22;1760;52.480;13.422;2022-08-21T02:51:18;19.90;99.90
3492;DHT22;1760;52.480;13.422;2022-08-21T02:53:49;19.90;99.90
3492;DHT22;1760;52.480;13.422;2022-08-21T02:56:19;19.80;99.90
3492;DHT22;1760;52.480;13.422;2022-08-21T02:58:48;19.80;99.90
3492;DHT22;1760;52.480;13.422;2022-08-21T03:01:20;19.80;99.90
3492;DHT22;1760;52.480;13.422;2022-08-21T03:03:50;19.80;99.90
3492;DHT22;1760;52.480;13.422;2022-08-21T03:06:22;19.70;99.90
3492;DHT22;1760;52.480;13.422;2022-08-21T03:08:50;19.70;99.90
3492;DHT22;1760;52.480;13.422;2022-08-21T03:11:17;19.60;99.90
3492;DHT22;1760;52.480;13.422;2022-08-21T03:13:46;19.60;99.90
3492;DHT22;1760;52.480;13.422;2022-08-21T03:16:14;19.60;99.90
3492;DHT22;1760;52.480;13.422;2022-08-21T03:18:42;19.60;99.90
3492;DHT22;1760;52.480;13.422;2022-08-21T03:21:13;19.60;99.90
3492;DHT22;1760;52.480;13.422;2022-08-21T03:23:40;19.60;99.90
3492;DHT22;1760;52.480;13.422;2022-08-21T03:26:07;19.50;99.90
3492;DHT22;1760;52.480;13.422;2022-08-21T03:28:37;19.50;99.90
3492;DHT22;1760;52.480;13.422;2022-08-21T03:31:04;19.50;99.90
3492;DHT22;1760;52.480;13.422;2022-08-21T03:33:31;19.50;99.90
3492;DHT22;1760;52.480;13.422;2022-08-21T03:36:03;19.40;99.90
3492;DHT22;1760;52.480;13.422;2022-08-21T03:38:31;19.40;99.90
3492;DHT22;1760;52.480;13.422;2022-08-21T03:41:06;19.40;99.90
3492;DHT22;1760;52.480;13.422;2022-08-21T03:43:33;19.40;99.90
3492;DHT22;1760;52.480;13.422;2022-08-21T03:46:00;19.40;99.90
3492;DHT22;1760;52.480;13.422;2022-08-21T03:48:33;19.40;99.90
3492;DHT22;1760;52.480;13.422;2022-08-21T03:51:01;19.40;99.90
3492;DHT22;1760;52.480;13.422;2022-08-21T03:53:28;19.40;99.90
3492;DHT22;1760;52.480;13.422;2022-08-21T03:55:56;19.30;99.90
3492;DHT22;1760;52.480;13.422;2022-08-21T03:58:25;19.30;99.90
3492;DHT22;1760;52.480;13.422;2022-08-21T04:00:55;19.30;99.90
3492;DHT22;1760;52.480;13.422;2022-08-21T04:03:24;19.30;99.90
3492;DHT22;1760;52.480;13.422;2022-08-21T04:05:51;19.30;99.90
3492;DHT22;1760;52.480;13.422;2022-08-21T04:08:20;19.30;99.90
3492;DHT22;1760;52.480;13.422;2022-08-21T04:10:49;19.20;99.90
3492;DHT22;1760;52.480;13.422;2022-08-21T04:13:17;19.20;99.90
3492;DHT22;1760;52.480;13.422;2022-08-21T04:15:46;19.20;99.90
3492;DHT22;1760;52.480;13.422;2022-08-21T04:18:13;19.10;99.90
3492;DHT22;1760;52.480;13.422;2022-08-21T04:20:41;19.10;99.90
3492;DHT22;1760;52.480;13.422;2022-08-21T04:23:12;19.10;99.90
3492;DHT22;1760;52.480;13.422;2022-08-21T04:25:44;19.10;99.90
3492;DHT22;1760;52.480;13.422;2022-08-21T04:28:11;19.10;99.90
3492;DHT22;1760;52.480;13.422;2022-08-21T04:30:38;19.10;99.90
3492;DHT22;1760;52.480;13.422;2022-08-21T04:33:05;19.10;99.90
3492;DHT22;1760;52.480;13.422;2022-08-21T04:35:32;19.10;99.90
3492;DHT22;1760;52.480;13.422;2022-08-21T04:38:01;19.10;99.90
3492;DHT22;1760;52.480;13.422;2022-08-21T04:40:28;19.10;99.90
3492;DHT22;1760;52.480;13.422;2022-08-21T04:43:06;19.10;99.90
3492;DHT22;1760;52.480;13.422;2022-08-21T04:45:35;19.20;99.90
3492;DHT22;1760;52.480;13.422;2022-08-21T04:48:05;19.20;99.90
3492;DHT22;1760;52.480;13.422;2022-08-21T04:50:36;19.20;99.90
3492;DHT22;1760;52.480;13.422;2022-08-21T04:53:05;19.20;99.90
3492;DHT22;1760;52.480;13.422;2022-08-21T04:55:37;19.20;99.90
3492;DHT22;1760;52.480;13.422;2022-08-21T04:58:06;19.20;99.90
3492;DHT22;1760;52.480;13.422;2022-08-21T05:00:35;19.30;99.90
3492;DHT22;1760;52.480;13.422;2022-08-21T05:03:07;19.30;99.90
3492;DHT22;1760;52.480;13.422;2022-08-21T05:05:34;19.30;99.90
3492;DHT22;1760;52.480;13.422;2022-08-21T05:08:03;19.30;99.90
3492;DHT22;1760;52.480;13.422;2022-08-21T05:10:30;19.30;99.90
3492;DHT22;1760;52.480;13.422;2022-08-21T05:12:58;19.40;99.90
3492;DHT22;1760;52.480;13.422;2022-08-21T05:15:29;19.40;99.90
3492;DHT22;1760;52.480;13.422;2022-08-21T05:18:02;19.40;99.90
3492;DHT22;1760;52.480;13.422;2022-08-21T05:20:29;19.40;99.90
3492;DHT22;1760;52.480;13.422;2022-08-21T05:22:56;19.40;99.90
3492;DHT22;1760;52.480;13.422;2022-08-21T05:25:23;19.50;99.90
3492;DHT22;1760;52.480;13.422;2022-08-21T05:27:50;19.50;99.90
3492;DHT22;1760;52.480;13.422;2022-08-21T05:30:20;19.40;99.90
3492;DHT22;1760;52.480;13.422;2022-08-21T05:32:48;19.50;99.90
3492;DHT22;1760;52.480;13.422;2022-08-21T05:35:21;19.40;99.90
3492;DHT22;1760;52.480;13.422;2022-08-21T05:37:47;19.50;99.90
3492;DHT22;1760;52.480;13.422;2022-08-21T05:40:14;19.50;99.90
3492;DHT22;1760;52.480;13.422;2022-08-21T05:42:41;19.50;99.90
3492;DHT22;1760;52.480;13.422;2022-08-21T05:45:08;19.50;99.90
3492;DHT22;1760;52.480;13.422;2022-08-21T05:47:35;19.50;99.90
3492;DHT22;1760;52.480;13.422;2022-08-21T05:50:04;19.60;99.90
3492;DHT22;1760;52.480;13.422;2022-08-21T05:52:34;19.60;99.90
3492;DHT22;1760;52.480;13.422;2022-08-21T05:55:01;19.60;99.90
3492;DHT22;1760;52.480;13.422;2022-08-21T05:57:28;19.50;99.90
3492;DHT22;1760;52.480;13.422;2022-08-21T05:59:55;19.60;99.90
3492;DHT22;1760;52.480;13.422;2022-08-21T06:02:22;19.60;99.90
3492;DHT22;1760;52.480;13.422;2022-08-21T06:04:49;19.60;99.90
3492;DHT22;1760;52.480;13.422;2022-08-21T06:07:17;19.60;99.90
3492;DHT22;1760;52.480;13.422;2022-08-21T06:09:44;19.70;99.90
3492;DHT22;1760;52.480;13.422;2022-08-21T06:12:12;19.70;99.90
3492;DHT22;1760;52.480;13.422;2022-08-21T06:14:46;19.80;99.90
3492;DHT22;1760;52.480;13.422;2022-08-21T06:17:13;19.80;99.90
3492;DHT22;1760;52.480;13.422;2022-08-21T06:19:41;19.80;99.90
3492;DHT22;1760;52.480;13.422;2022-08-21T06:22:08;19.90;99.90
3492;DHT22;1760;52.480;13.422;2022-08-21T06:24:36;19.90;99.90
3492;DHT22;1760;52.480;13.422;2022-08-21T06:27:05;20.00;99.90
3492;DHT22;1760;52.480;13.422;2022-08-21T06:29:33;20.00;99.90
3492;DHT22;1760;52.480;13.422;2022-08-21T06:32:00;20.00;99.90
3492;DHT22;1760;52.480;13.422;2022-08-21T06:34:28;20.10;99.90
3492;DHT22;1760;52.480;13.422;2022-08-21T06:36:55;20.10;99.90
3492;DHT22;1760;52.480;13.422;2022-08-21T06:39:25;20.10;99.90
3492;DHT22;1760;52.480;13.422;2022-08-21T06:41:56;20.10;99.90
3492;DHT22;1760;52.480;13.422;2022-08-21T06:44:23;20.20;99.90
3492;DHT22;1760;52.480;13.422;2022-08-21T06:46:50;20.10;99.90
3492;DHT22;1760;52.480;13.422;2022-08-21T06:49:17;20.20;99.90
3492;DHT22;1760;52.480;13.422;2022-08-21T06:51:47;20.30;99.90
3492;DHT22;1760;52.480;13.422;2022-08-21T06:54:17;20.40;99.90
3492;DHT22;1760;52.480;13.422;2022-08-21T06:56:44;20.50;99.90
3492;DHT22;1760;52.480;13.422;2022-08-21T06:59:15;20.60;99.90
3492;DHT22;1760;52.480;13.422;2022-08-21T07:01:42;20.70;99.90
3492;DHT22;1760;52.480;13.422;2022-08-21T07:04:13;20.70;99.90
3492;DHT22;1760;52.480;13.422;2022-08-21T07:06:40;20.80;99.90
3492;DHT22;1760;52.480;13.422;2022-08-21T07:09:07;20.80;99.90
3492;DHT22;1760;52.480;13.422;2022-08-21T07:11:35;20.80;99.90
3492;DHT22;1760;52.480;13.422;2022-08-21T07:14:03;20.90;99.90
3492;DHT22;1760;52.480;13.422;2022-08-21T07:16:31;20.90;99.90
3492;DHT22;1760;52.480;13.422;2022-08-21T07:18:58;20.90;99.90
3492;DHT22;1760;52.480;13.422;2022-08-21T07:21:26;21.00;99.90
3492;DHT22;1760;52.480;13.422;2022-08-21T07:23:53;21.10;99.90
3492;DHT22;1760;52.480;13.422;2022-08-21T07:26:23;21.20;99.90
3492;DHT22;1760;52.480;13.422;2022-08-21T07:28:52;21.30;99.90
3492;DHT22;1760;52.480;13.422;2022-08-21T07:31:21;21.40;99.90
3492;DHT22;1760;52.480;13.422;2022-08-21T07:33:49;21.40;99.90
3492;DHT22;1760;52.480;13.422;2022-08-21T07:36:16;21.60;99.90
3492;DHT22;1760;52.480;13.422;2022-08-21T07:38:43;21.70;99.90
3492;DHT22;1760;52.480;13.422;2022-08-21T07:41:15;21.90;99.90
3492;DHT22;1760;52.480;13.422;2022-08-21T07:43:48;21.90;99.90
3492;DHT22;1760;52.480;13.422;2022-08-21T07:46:15;22.10;99.90
3492;DHT22;1760;52.480;13.422;2022-08-21T07:48:41;22.20;99.90
3492;DHT22;1760;52.480;13.422;2022-08-21T07:51:13;22.30;99.90
3492;DHT22;1760;52.480;13.422;2022-08-21T07:53:41;22.40;99.90
3492;DHT22;1760;52.480;13.422;2022-08-21T07:56:08;22.60;99.90
3492;DHT22;1760;52.480;13.422;2022-08-21T07:58:36;22.70;99.90
3492;DHT22;1760;52.480;13.422;2022-08-21T08:01:06;23.00;99.90
3492;DHT22;1760;52.480;13.422;2022-08-21T08:03:35;23.40;99.90
3492;DHT22;1760;52.480;13.422;2022-08-21T08:06:02;23.80;99.90
3492;DHT22;1760;52.480;13.422;2022-08-21T08:08:31;24.20;99.90
3492;DHT22;1760;52.480;13.422;2022-08-21T08:10:58;24.60;99.90
3492;DHT22;1760;52.480;13.422;2022-08-21T08:13:26;24.90;99.90
3492;DHT22;1760;52.480;13.422;2022-08-21T08:15:53;25.30;99.90
3492;DHT22;1760;52.480;13.422;2022-08-21T08:18:20;25.40;99.90
3492;DHT22;1760;52.480;13.422;2022-08-21T08:20:46;25.50;99.90
3492;DHT22;1760;52.480;13.422;2022-08-21T08:23:14;25.70;99.90
3492;DHT22;1760;52.480;13.422;2022-08-21T08:25:42;26.10;99.90
3492;DHT22;1760;52.480;13.422;2022-08-21T08:28:09;26.60;99.90
3492;DHT22;1760;52.480;13.422;2022-08-21T08:30:36;27.20;98.10
3492;DHT22;1760;52.480;13.422;2022-08-21T08:33:03;27.70;96.00
3492;DHT22;1760;52.480;13.422;2022-08-21T08:35:30;28.10;92.70
3492;DHT22;1760;52.480;13.422;2022-08-21T08:37:57;28.50;89.70
3492;DHT22;1760;52.480;13.422;2022-08-21T08:40:31;28.60;85.60
3492;DHT22;1760;52.480;13.422;2022-08-21T08:43:02;28.40;85.20
3492;DHT22;1760;52.480;13.422;2022-08-21T08:45:37;28.10;86.90
3492;DHT22;1760;52.480;13.422;2022-08-21T08:48:09;27.80;88.30
3492;DHT22;1760;52.480;13.422;2022-08-21T08:50:41;27.50;89.40
3492;DHT22;1760;52.480;13.422;2022-08-21T08:53:12;27.20;90.20
3492;DHT22;1760;52.480;13.422;2022-08-21T08:55:44;26.90;91.20
3492;DHT22;1760;52.480;13.422;2022-08-21T08:58:18;26.40;90.30
3492;DHT22;1760;52.480;13.422;2022-08-21T09:00:49;26.00;90.70
3492;DHT22;1760;52.480;13.422;2022-08-21T09:03:17;25.60;91.30
3492;DHT22;1760;52.480;13.422;2022-08-21T09:05:46;25.30;93.00
3492;DHT22;1760;52.480;13.422;2022-08-21T09:11:04;25.00;95.30
3492;DHT22;1760;52.480;13.422;2022-08-21T09:13:43;24.90;96.10
3492;DHT22;1760;52.480;13.422;2022-08-21T09:16:20;24.90;96.10
3492;DHT22;1760;52.480;13.422;2022-08-21T09:18:56;24.80;95.40
3492;DHT22;1760;52.480;13.422;2022-08-21T09:21:28;24.70;97.10
3492;DHT22;1760;52.480;13.422;2022-08-21T09:24:00;24.60;96.10
3492;DHT22;1760;52.480;13.422;2022-08-21T09:26:36;24.50;97.40
3492;DHT22;1760;52.480;13.422;2022-08-21T09:29:10;24.50;97.90
3492;DHT22;1760;52.480;13.422;2022-08-21T09:31:38;24.50;98.20
3492;DHT22;1760;52.480;13.422;2022-08-21T09:34:07;24.40;99.40
3492;DHT22;1760;52.480;13.422;2022-08-21T09:36:38;24.40;99.90
3492;DHT22;1760;52.480;13.422;2022-08-21T09:39:07;24.50;99.70
3492;DHT22;1760;52.480;13.422;2022-08-21T09:41:35;24.40;99.40
3492;DHT22;1760;52.480;13.422;2022-08-21T09:44:04;24.30;99.90
3492;DHT22;1760;52.480;13.422;2022-08-21T09:46:33;24.20;99.90
3492;DHT22;1760;52.480;13.422;2022-08-21T09:49:03;24.10;99.90
3492;DHT22;1760;52.480;13.422;2022-08-21T09:51:32;24.00;99.90
3492;DHT22;1760;52.480;13.422;2022-08-21T09:54:15;24.10;99.90
3492;DHT22;1760;52.480;13.422;2022-08-21T09:56:54;24.20;99.90
3492;DHT22;1760;52.480;13.422;2022-08-21T09:59:41;24.30;99.90
3492;DHT22;1760;52.480;13.422;2022-08-21T10:02:24;24.50;99.90
3492;DHT22;1760;52.480;13.422;2022-08-21T10:04:52;24.70;99.90
3492;DHT22;1760;52.480;13.422;2022-08-21T10:07:21;25.00;99.90
3492;DHT22;1760;52.480;13.422;2022-08-21T10:09:58;25.30;99.90
3492;DHT22;1760;52.480;13.422;2022-08-21T10:12:30;25.50;99.10
3492;DHT22;1760;52.480;13.422;2022-08-21T10:15:05;25.70;97.40
3492;DHT22;1760;52.480;13.422;2022-08-21T10:17:42;25.70;96.70
3492;DHT22;1760;52.480;13.422;2022-08-21T10:20:17;25.60;96.70
3492;DHT22;1760;52.480;13.422;2022-08-21T10:22:51;25.60;97.20
3492;DHT22;1760;52.480;13.422;2022-08-21T10:25:30;25.60;95.70
3492;DHT22;1760;52.480;13.422;2022-08-21T10:28:01;25.50;95.90
3492;DHT22;1760;52.480;13.422;2022-08-21T10:30:38;25.50;96.10
3492;DHT22;1760;52.480;13.422;2022-08-21T10:33:27;25.60;96.40
3492;DHT22;1760;52.480;13.422;2022-08-21T10:36:03;25.80;94.40
3492;DHT22;1760;52.480;13.422;2022-08-21T10:41:32;26.20;92.30
3492;DHT22;1760;52.480;13.422;2022-08-21T10:44:19;26.30;91.70
3492;DHT22;1760;52.480;13.422;2022-08-21T10:46:56;26.50;89.20
3492;DHT22;1760;52.480;13.422;2022-08-21T10:49:35;26.60;90.60
3492;DHT22;1760;52.480;13.422;2022-08-21T10:55:04;26.70;90.60
3492;DHT22;1760;52.480;13.422;2022-08-21T10:57:40;26.60;91.10
3492;DHT22;1760;52.480;13.422;2022-08-21T11:00:10;26.50;88.40
3492;DHT22;1760;52.480;13.422;2022-08-21T11:02:42;26.30;88.40
3492;DHT22;1760;52.480;13.422;2022-08-21T11:05:17;26.20;86.10
3492;DHT22;1760;52.480;13.422;2022-08-21T11:07:48;26.10;88.70
3492;DHT22;1760;52.480;13.422;2022-08-21T11:10:22;26.30;89.70
3492;DHT22;1760;52.480;13.422;2022-08-21T11:12:54;26.60;87.60
3492;DHT22;1760;52.480;13.422;2022-08-21T11:15:31;26.80;83.10
3492;DHT22;1760;52.480;13.422;2022-08-21T11:18:10;27.00;78.30
3492;DHT22;1760;52.480;13.422;2022-08-21T11:20:49;27.00;79.50
3492;DHT22;1760;52.480;13.422;2022-08-21T11:23:21;27.10;79.90
3492;DHT22;1760;52.480;13.422;2022-08-21T11:25:53;27.40;80.90
3492;DHT22;1760;52.480;13.422;2022-08-21T11:28:31;27.60;78.60
3492;DHT22;1760;52.480;13.422;2022-08-21T11:31:08;27.80;79.80
3492;DHT22;1760;52.480;13.422;2022-08-21T11:33:51;28.00;78.90
3492;DHT22;1760;52.480;13.422;2022-08-21T11:36:32;28.00;75.20
3492;DHT22;1760;52.480;13.422;2022-08-21T11:39:06;28.10;75.00
3492;DHT22;1760;52.480;13.422;2022-08-21T11:41:38;28.20;71.70
3492;DHT22;1760;52.480;13.422;2022-08-21T11:44:12;28.30;70.50
3492;DHT22;1760;52.480;13.422;2022-08-21T11:46:47;28.40;68.20
3492;DHT22;1760;52.480;13.422;2022-08-21T11:49:33;28.30;70.80
3492;DHT22;1760;52.480;13.422;2022-08-21T11:52:12;28.30;68.20
3492;DHT22;1760;52.480;13.422;2022-08-21T11:54:42;28.30;69.70
3492;DHT22;1760;52.480;13.422;2022-08-21T11:57:17;28.30;65.70
3492;DHT22;1760;52.480;13.422;2022-08-21T11:59:49;28.20;65.30
3492;DHT22;1760;52.480;13.422;2022-08-21T12:02:22;28.00;66.40
3492;DHT22;1760;52.480;13.422;2022-08-21T12:04:53;27.60;66.90
3492;DHT22;1760;52.480;13.422;2022-08-21T12:07:34;27.40;66.20
3492;DHT22;1760;52.480;13.422;2022-08-21T12:10:06;27.00;64.20
3492;DHT22;1760;52.480;13.422;2022-08-21T12:12:35;26.60;66.60
3492;DHT22;1760;52.480;13.422;2022-08-21T12:15:26;26.40;67.60
3492;DHT22;1760;52.480;13.422;2022-08-21T12:17:58;26.30;68.20
3492;DHT22;1760;52.480;13.422;2022-08-21T12:20:40;26.50;68.50
3492;DHT22;1760;52.480;13.422;2022-08-21T12:23:25;26.60;67.70
3492;DHT22;1760;52.480;13.422;2022-08-21T12:26:13;26.50;67.50
3492;DHT22;1760;52.480;13.422;2022-08-21T12:28:43;26.40;69.50
3492;DHT22;1760;52.480;13.422;2022-08-21T12:31:24;26.30;68.10
3492;DHT22;1760;52.480;13.422;2022-08-21T12:33:58;26.40;68.90
3492;DHT22;1760;52.480;13.422;2022-08-21T12:36:39;26.50;69.50
3492;DHT22;1760;52.480;13.422;2022-08-21T12:39:21;26.60;70.20
3492;DHT22;1760;52.480;13.422;2022-08-21T12:41:54;26.60;65.60
3492;DHT22;1760;52.480;13.422;2022-08-21T12:44:28;26.60;65.20
3492;DHT22;1760;52.480;13.422;2022-08-21T12:47:00;26.60;64.50
3492;DHT22;1760;52.480;13.422;2022-08-21T12:49:33;26.60;65.90
3492;DHT22;1760;52.480;13.422;2022-08-21T12:52:06;26.70;62.70
3492;DHT22;1760;52.480;13.422;2022-08-21T12:54:41;26.80;64.20
3492;DHT22;1760;52.480;13.422;2022-08-21T12:57:16;26.90;63.20
3492;DHT22;1760;52.480;13.422;2022-08-21T12:59:44;26.90;63.10
3492;DHT22;1760;52.480;13.422;2022-08-21T13:02:17;27.00;62.90
3492;DHT22;1760;52.480;13.422;2022-08-21T13:04:46;26.90;63.90
3492;DHT22;1760;52.480;13.422;2022-08-21T13:07:19;26.90;62.20
3492;DHT22;1760;52.480;13.422;2022-08-21T13:09:53;26.80;62.50
3492;DHT22;1760;52.480;13.422;2022-08-21T13:12:22;26.70;64.00
3492;DHT22;1760;52.480;13.422;2022-08-21T13:14:50;26.70;65.20
3492;DHT22;1760;52.480;13.422;2022-08-21T13:17:19;26.80;66.30
3492;DHT22;1760;52.480;13.422;2022-08-21T13:19:54;26.80;67.50
3492;DHT22;1760;52.480;13.422;2022-08-21T13:22:21;26.70;66.20
3492;DHT22;1760;52.480;13.422;2022-08-21T13:24:49;26.80;67.10
3492;DHT22;1760;52.480;13.422;2022-08-21T13:27:22;26.90;65.20
3492;DHT22;1760;52.480;13.422;2022-08-21T13:30:01;27.00;65.10
3492;DHT22;1760;52.480;13.422;2022-08-21T13:32:30;27.10;67.10
3492;DHT22;1760;52.480;13.422;2022-08-21T13:34:59;27.20;66.60
3492;DHT22;1760;52.480;13.422;2022-08-21T13:37:33;27.20;65.50
3492;DHT22;1760;52.480;13.422;2022-08-21T13:40:07;27.00;65.00
3492;DHT22;1760;52.480;13.422;2022-08-21T13:42:37;26.90;66.60
3492;DHT22;1760;52.480;13.422;2022-08-21T13:45:12;26.80;65.20
3492;DHT22;1760;52.480;13.422;2022-08-21T13:47:39;26.80;66.10
3492;DHT22;1760;52.480;13.422;2022-08-21T13:50:07;26.80;66.60
3492;DHT22;1760;52.480;13.422;2022-08-21T13:52:53;26.70;67.70
3492;DHT22;1760;52.480;13.422;2022-08-21T13:55:24;26.80;67.90
3492;DHT22;1760;52.480;13.422;2022-08-21T13:57:59;26.90;66.80
3492;DHT22;1760;52.480;13.422;2022-08-21T14:00:28;27.00;65.60
3492;DHT22;1760;52.480;13.422;2022-08-21T14:03:02;27.00;65.90
3492;DHT22;1760;52.480;13.422;2022-08-21T14:05:32;27.10;65.40
3492;DHT22;1760;52.480;13.422;2022-08-21T14:08:04;27.20;66.90
3492;DHT22;1760;52.480;13.422;2022-08-21T14:10:36;27.40;66.40
3492;DHT22;1760;52.480;13.422;2022-08-21T14:13:05;27.40;68.00
3492;DHT22;1760;52.480;13.422;2022-08-21T14:15:34;27.40;68.30
3492;DHT22;1760;52.480;13.422;2022-08-21T14:18:13;27.50;69.40
3492;DHT22;1760;52.480;13.422;2022-08-21T14:20:41;27.50;70.20
3492;DHT22;1760;52.480;13.422;2022-08-21T14:23:08;27.50;69.40
3492;DHT22;1760;52.480;13.422;2022-08-21T14:25:42;27.40;70.50
3492;DHT22;1760;52.480;13.422;2022-08-21T14:28:19;27.30;69.90
3492;DHT22;1760;52.480;13.422;2022-08-21T14:30:47;27.30;71.60
3492;DHT22;1760;52.480;13.422;2022-08-21T14:33:20;27.30;70.40
3492;DHT22;1760;52.480;13.422;2022-08-21T14:35:49;27.20;69.50
3492;DHT22;1760;52.480;13.422;2022-08-21T14:38:18;27.00;67.50
3492;DHT22;1760;52.480;13.422;2022-08-21T14:40:49;26.70;68.10
3492;DHT22;1760;52.480;13.422;2022-08-21T14:43:16;26.40;69.40
3492;DHT22;1760;52.480;13.422;2022-08-21T14:45:44;26.10;70.30
3492;DHT22;1760;52.480;13.422;2022-08-21T14:48:11;26.00;70.90
3492;DHT22;1760;52.480;13.422;2022-08-21T14:50:38;25.80;71.20
3492;DHT22;1760;52.480;13.422;2022-08-21T14:53:05;25.60;72.10
3492;DHT22;1760;52.480;13.422;2022-08-21T14:55:33;25.50;73.10
3492;DHT22;1760;52.480;13.422;2022-08-21T14:58:25;25.30;72.80
3492;DHT22;1760;52.480;13.422;2022-08-21T15:00:52;25.20;74.50
3492;DHT22;1760;52.480;13.422;2022-08-21T15:03:20;25.10;74.70
3492;DHT22;1760;52.480;13.422;2022-08-21T15:05:48;25.10;75.50
3492;DHT22;1760;52.480;13.422;2022-08-21T15:08:15;25.00;75.50
3492;DHT22;1760;52.480;13.422;2022-08-21T15:10:42;25.00;76.30
3492;DHT22;1760;52.480;13.422;2022-08-21T15:13:09;25.00;78.90
3492;DHT22;1760;52.480;13.422;2022-08-21T15:15:41;25.00;78.10
3492;DHT22;1760;52.480;13.422;2022-08-21T15:18:11;25.00;78.80
3492;DHT22;1760;52.480;13.422;2022-08-21T15:20:38;25.00;80.70
3492;DHT22;1760;52.480;13.422;2022-08-21T15:23:06;24.90;80.10
3492;DHT22;1760;52.480;13.422;2022-08-21T15:25:33;24.90;80.80
3492;DHT22;1760;52.480;13.422;2022-08-21T15:28:01;24.90;81.10
3492;DHT22;1760;52.480;13.422;2022-08-21T15:30:30;24.90;82.10
3492;DHT22;1760;52.480;13.422;2022-08-21T15:32:59;24.90;81.30
3492;DHT22;1760;52.480;13.422;2022-08-21T15:35:26;24.80;81.50
3492;DHT22;1760;52.480;13.422;2022-08-21T15:37:52;24.80;82.10
3492;DHT22;1760;52.480;13.422;2022-08-21T15:40:19;24.80;83.40
3492;DHT22;1760;52.480;13.422;2022-08-21T15:42:50;24.80;83.20
3492;DHT22;1760;52.480;13.422;2022-08-21T15:45:19;24.80;84.20
3492;DHT22;1760;52.480;13.422;2022-08-21T15:47:49;24.90;84.90
3492;DHT22;1760;52.480;13.422;2022-08-21T15:50:18;24.90;84.50
3492;DHT22;1760;52.480;13.422;2022-08-21T15:52:45;24.90;84.10
3492;DHT22;1760;52.480;13.422;2022-08-21T15:55:13;24.90;86.30
3492;DHT22;1760;52.480;13.422;2022-08-21T15:57:44;24.90;85.70
3492;DHT22;1760;52.480;13.422;2022-08-21T16:00:14;24.80;86.80
3492;DHT22;1760;52.480;13.422;2022-08-21T16:02:45;24.80;85.50
3492;DHT22;1760;52.480;13.422;2022-08-21T16:05:14;24.70;86.30
3492;DHT22;1760;52.480;13.422;2022-08-21T16:07:47;24.60;87.10
3492;DHT22;1760;52.480;13.422;2022-08-21T16:10:21;24.60;87.70
3492;DHT22;1760;52.480;13.422;2022-08-21T16:12:53;24.50;87.80